首页
METAR-TAF:

METAR-TAF

机场 :

Gilze-Rijen, 荷兰

纬度: 51-34N, 经度: 004-56E, 海拔: 15米

当前天气观测

该预报发布于16分钟前的04:55 UTC
风速5节,风向西南
温度 5°C
湿度 87%
气压 1014 hPa
能见度10公里或以上
少量云层高于1500英尺, 积雨云.
多云层高于3100英尺
多云层高于3700英尺
阴天层高于4400英尺

METAR: EHGR 190455Z AUTO 22005KT 9999 FEW015CB BKN031 BKN037 OVC044 05/03 Q1014 BLU

时间: 06:11 (05:11 UTC)

预报

该预报发布于11小时和23分钟前的17:48 UTC
预报有效从18日的 18点(UTC)到 19日的 06点(UTC)
风速8节,风向西北
能見度: 6000
散云层高于1200英尺
多云层高于3500英尺
短暂存在
从 18日的 18点(UTC)到 18日的 21点(UTC)
能見度: 4000
散云层高于800英尺
多云层高于1200英尺
阴天层高于3500英尺
成为
从 18日的 19点(UTC)到 18日的 22点(UTC)
散云层高于2000英尺
多云层高于3000英尺

TAF: EHGR 181748Z 1818/1906 31008KT 6000 SCT012 BKN035 TEMPO 1818/1821 4000 RA SCT008 BKN012 OVC035 BECMG 1819/1822 SCT020 BKN030

超过4000个机场的气象观测和天气预报(METAR&TAF报告)。

可查询的气象台以黄色和红色小点在地图上表示。

将鼠标移到小点上方,可查看气象台名称。

然后点击查看天气观测和预报。

如需切换地图:点击带黑十字的绿色按钮放大地图;点击带横线的绿色按钮缩小地图;或者点击绿色箭头查看邻近地区的地图。


METAR-TAF: